Time;durP1;ratioP1;P1;durP2;ratioP2;P2;SDS_P1;SDS_P2;PMS_P1;PMS_P2;Temp;Humidity;BMP_temperature;BMP_pressure;BME280_temperature;BME280_humidity;BME280_pressure;Samples;Min_cycle;Max_cycle;Signal;HPM_P1;HPM_P2
2023/06/05 00:01:13;;;;;;;1.63;1.52;;;;;;;;;;5112205;28;20079;-86
2023/06/05 00:03:43;;;;;;;2.45;1.90;;;;;;;;;;5112664;28;20047;-86
2023/06/05 00:06:10;;;;;;;1.77;1.65;;;;;;;;;;5113091;28;20054;-87
2023/06/05 00:08:38;;;;;;;4.15;2.05;;;;;;;;;;5112552;28;20449;-87
2023/06/05 00:11:05;;;;;;;4.20;1.65;;;;;;;;;;5112655;28;20116;-87
2023/06/05 00:13:33;;;;;;;5.03;1.60;;;;;;;;;;5112751;28;20062;-87
2023/06/05 00:16:02;;;;;;;1.65;1.55;;;;;;;;;;5112591;28;20467;-87
2023/06/05 00:18:31;;;;;;;3.05;1.60;;;;;;;;;;5112511;28;20073;-87
2023/06/05 00:20:58;;;;;;;2.28;1.73;;;;;;;;;;5112179;28;20043;-87
2023/06/05 00:23:25;;;;;;;8.05;2.05;;;;;;;;;;5112392;28;20152;-87
2023/06/05 00:25:52;;;;;;;1.58;1.48;;;;;;;;;;5112310;28;20420;-87
2023/06/05 00:28:20;;;;;;;8.95;1.90;;;;;;;;;;5112281;28;20047;-87
2023/06/05 00:30:47;;;;;;;2.65;2.10;;;;;;;;;;5112060;28;20437;-87
2023/06/05 00:33:14;;;;;;;2.15;1.50;;;;;;;;;;5112216;28;20101;-87
2023/06/05 00:35:41;;;;;;;1.77;1.67;;;;;;;;;;5112037;28;20039;-87
2023/06/05 00:38:09;;;;;;;1.42;1.33;;;;;;;;;;5111997;28;20089;-86
2023/06/05 00:40:36;;;;;;;3.22;1.73;;;;;;;;;;5111995;27;20097;-87
2023/06/05 00:43:05;;;;;;;1.77;1.40;;;;;;;;;;5116211;28;20059;-87
2023/06/05 00:45:32;;;;;;;2.33;1.80;;;;;;;;;;5115989;28;20051;-87
2023/06/05 00:48:00;;;;;;;3.45;1.88;;;;;;;;;;5116094;28;20097;-87
2023/06/05 00:50:27;;;;;;;1.60;1.52;;;;;;;;;;5116338;28;20044;-87
2023/06/05 00:52:55;;;;;;;1.60;1.50;;;;;;;;;;5115992;28;20043;-84
2023/06/05 00:55:22;;;;;;;4.00;1.92;;;;;;;;;;5115960;28;20055;-85
2023/06/05 00:57:50;;;;;;;1.88;1.70;;;;;;;;;;5115963;28;20483;-87
2023/06/05 01:00:18;;;;;;;1.95;1.60;;;;;;;;;;5116187;28;20078;-87
2023/06/05 01:02:45;;;;;;;3.22;2.00;;;;;;;;;;5115854;28;20089;-87
2023/06/05 01:05:14;;;;;;;3.15;1.80;;;;;;;;;;5117025;28;20101;-87
2023/06/05 01:07:41;;;;;;;1.65;1.55;;;;;;;;;;5133042;27;20047;-87
2023/06/05 01:10:08;;;;;;;2.45;1.80;;;;;;;;;;5115628;28;20108;-87
2023/06/05 01:12:51;;;;;;;1.70;1.60;;;;;;;;;;5115546;28;20044;-87
2023/06/05 01:15:26;;;;;;;2.20;1.85;;;;;;;;;;5115849;28;20048;-84
2023/06/05 01:17:54;;;;;;;2.50;1.77;;;;;;;;;;5115423;28;20051;-86
2023/06/05 01:20:22;;;;;;;2.00;1.90;;;;;;;;;;5115461;28;20403;-87
2023/06/05 01:22:52;;;;;;;2.03;1.92;;;;;;;;;;5116327;28;20479;-87
2023/06/05 01:25:21;;;;;;;3.97;1.90;;;;;;;;;;5115726;28;20047;-87
2023/06/05 01:28:15;;;;;;;2.53;2.10;;;;;;;;;;5115380;28;20088;-87
2023/06/05 01:30:44;;;;;;;2.63;1.92;;;;;;;;;;5099783;28;20051;-87
2023/06/05 01:33:12;;;;;;;3.80;2.15;;;;;;;;;;5115359;28;20146;-87
2023/06/05 01:35:41;;;;;;;4.40;1.90;;;;;;;;;;5115807;28;20061;-87
2023/06/05 01:38:10;;;;;;;1.80;1.70;;;;;;;;;;5115203;28;20309;-87
2023/06/05 01:40:38;;;;;;;3.08;1.90;;;;;;;;;;5115129;28;20052;-87
2023/06/05 01:43:06;;;;;;;2.00;1.90;;;;;;;;;;5116060;28;20078;-87
2023/06/05 01:45:37;;;;;;;4.95;2.33;;;;;;;;;;5115165;28;20047;-87
2023/06/05 01:48:05;;;;;;;2.13;1.80;;;;;;;;;;5115108;28;20055;-87
2023/06/05 01:50:36;;;;;;;2.10;1.90;;;;;;;;;;5115236;28;20054;-87
2023/06/05 01:53:03;;;;;;;3.85;2.28;;;;;;;;;;5114818;28;20043;-85
2023/06/05 01:55:30;;;;;;;4.45;1.95;;;;;;;;;;5114848;28;20121;-87
2023/06/05 01:57:57;;;;;;;3.70;1.88;;;;;;;;;;5114851;28;20044;-84
2023/06/05 02:00:25;;;;;;;1.95;1.85;;;;;;;;;;5114584;28;20047;-85
2023/06/05 02:02:53;;;;;;;3.67;2.15;;;;;;;;;;5114475;28;20047;-84
2023/06/05 02:05:20;;;;;;;2.33;2.13;;;;;;;;;;5115691;28;20054;-87
2023/06/05 02:07:49;;;;;;;3.72;1.95;;;;;;;;;;5114340;28;20047;-87
2023/06/05 02:10:18;;;;;;;3.40;2.22;;;;;;;;;;5114410;28;20043;-87
2023/06/05 02:12:47;;;;;;;2.38;2.17;;;;;;;;;;5114421;28;20047;-87
2023/06/05 02:15:14;;;;;;;2.80;1.70;;;;;;;;;;5114654;28;20047;-87
2023/06/05 02:17:49;;;;;;;1.98;1.88;;;;;;;;;;5114794;28;20050;-87
2023/06/05 02:20:17;;;;;;;2.33;1.95;;;;;;;;;;5116294;28;20052;-87
2023/06/05 02:22:45;;;;;;;2.25;2.15;;;;;;;;;;5131363;28;20048;-87
2023/06/05 02:25:12;;;;;;;2.20;2.00;;;;;;;;;;5114640;28;20453;-87
2023/06/05 02:27:40;;;;;;;3.35;2.08;;;;;;;;;;5114429;28;20071;-87
2023/06/05 02:30:08;;;;;;;2.22;2.03;;;;;;;;;;5114168;28;20105;-84
2023/06/05 02:32:35;;;;;;;3.53;2.50;;;;;;;;;;5113553;28;20059;-87
2023/06/05 02:35:04;;;;;;;2.60;1.80;;;;;;;;;;5115039;28;20405;-85
2023/06/05 02:37:36;;;;;;;2.78;2.10;;;;;;;;;;5115214;28;20047;-87
2023/06/05 02:40:07;;;;;;;4.00;2.08;;;;;;;;;;5115052;28;20492;-83
2023/06/05 02:42:35;;;;;;;3.10;2.17;;;;;;;;;;5114702;28;20104;-86
2023/06/05 02:45:03;;;;;;;2.00;1.83;;;;;;;;;;5114867;28;20503;-86
2023/06/05 02:47:31;;;;;;;2.05;1.90;;;;;;;;;;5114714;28;20048;-87
2023/06/05 02:49:58;;;;;;;3.67;2.25;;;;;;;;;;5114788;27;20538;-87
2023/06/05 02:52:25;;;;;;;3.58;2.13;;;;;;;;;;5113512;28;20102;-86
2023/06/05 02:54:53;;;;;;;2.38;2.10;;;;;;;;;;5113365;28;20552;-86
2023/06/05 02:57:20;;;;;;;2.30;2.10;;;;;;;;;;5113287;28;20051;-86
2023/06/05 02:59:48;;;;;;;2.20;2.00;;;;;;;;;;5114291;28;20101;-86
2023/06/05 03:02:15;;;;;;;2.35;2.15;;;;;;;;;;5113996;27;20134;-86
2023/06/05 03:04:42;;;;;;;2.70;2.13;;;;;;;;;;5112825;28;20134;-86
2023/06/05 03:07:12;;;;;;;2.75;2.53;;;;;;;;;;5113375;28;20480;-87
2023/06/05 03:09:40;;;;;;;2.38;2.17;;;;;;;;;;5114522;28;20054;-86
2023/06/05 03:12:07;;;;;;;3.25;2.22;;;;;;;;;;5113142;28;20047;-86
2023/06/05 03:14:35;;;;;;;2.88;2.17;;;;;;;;;;5112999;28;20048;-86
2023/06/05 03:17:03;;;;;;;5.75;2.00;;;;;;;;;;5113182;28;20511;-85
2023/06/05 03:19:30;;;;;;;3.63;2.58;;;;;;;;;;5113153;28;20403;-86
2023/06/05 03:21:58;;;;;;;2.85;2.47;;;;;;;;;;5112872;28;20093;-86
2023/06/05 03:24:26;;;;;;;2.72;2.53;;;;;;;;;;5113157;28;20039;-85
2023/06/05 03:26:54;;;;;;;2.28;2.17;;;;;;;;;;5112402;28;20553;-85
2023/06/05 03:29:21;;;;;;;3.28;2.42;;;;;;;;;;5113390;28;20043;-86
2023/06/05 03:31:48;;;;;;;3.03;2.55;;;;;;;;;;5112810;28;20079;-86
2023/06/05 03:34:16;;;;;;;2.55;2.35;;;;;;;;;;5113430;28;20048;-86
2023/06/05 03:36:43;;;;;;;2.60;2.40;;;;;;;;;;5124590;28;20055;-85
2023/06/05 03:39:11;;;;;;;2.75;2.47;;;;;;;;;;5120906;28;20047;-86
2023/06/05 03:41:39;;;;;;;2.92;2.30;;;;;;;;;;5113946;28;20044;-86
2023/06/05 03:44:08;;;;;;;2.55;2.28;;;;;;;;;;5112769;28;20043;-85
2023/06/05 03:46:35;;;;;;;3.53;2.22;;;;;;;;;;5113061;28;20071;-86
2023/06/05 03:49:08;;;;;;;3.95;2.25;;;;;;;;;;5112862;28;20479;-86
2023/06/05 03:51:36;;;;;;;4.68;3.50;;;;;;;;;;5112811;28;20047;-86
2023/06/05 03:54:05;;;;;;;4.35;3.08;;;;;;;;;;5113550;28;20051;-86
2023/06/05 03:56:39;;;;;;;6.15;4.55;;;;;;;;;;5112680;28;20112;-86
2023/06/05 03:59:11;;;;;;;;;;;;;;;;;;5113246;28;20048;-87
2023/06/05 04:01:38;;;;;;;5.93;4.65;;;;;;;;;;5112330;28;19920;-86
2023/06/05 04:04:05;;;;;;;4.65;3.15;;;;;;;;;;5112351;28;20479;-87
2023/06/05 04:06:34;;;;;;;3.35;2.45;;;;;;;;;;5112307;28;20051;-86
2023/06/05 04:09:02;;;;;;;8.95;3.28;;;;;;;;;;5112361;28;20497;-86
2023/06/05 04:11:31;;;;;;;8.18;3.05;;;;;;;;;;5113091;28;20071;-86
2023/06/05 04:13:59;;;;;;;4.40;2.97;;;;;;;;;;5113607;28;20052;-86
2023/06/05 04:16:26;;;;;;;2.80;2.30;;;;;;;;;;5113764;28;20075;-87
2023/06/05 04:18:53;;;;;;;3.88;2.20;;;;;;;;;;5117353;28;20054;-87
2023/06/05 04:21:21;;;;;;;2.75;2.22;;;;;;;;;;5116595;28;20055;-87
2023/06/05 04:23:48;;;;;;;6.25;3.80;;;;;;;;;;5117783;28;20415;-87
2023/06/05 04:26:17;;;;;;;6.55;4.13;;;;;;;;;;5116746;28;20050;-87
2023/06/05 04:28:45;;;;;;;5.38;3.58;;;;;;;;;;5116753;28;20096;-86
2023/06/05 04:31:12;;;;;;;4.65;3.53;;;;;;;;;;5116494;28;20453;-87
2023/06/05 04:33:39;;;;;;;3.63;3.28;;;;;;;;;;5117823;28;20130;-87
2023/06/05 04:36:07;;;;;;;3.70;2.58;;;;;;;;;;5116623;28;20048;-86
2023/06/05 04:38:34;;;;;;;2.63;2.42;;;;;;;;;;5116764;28;20092;-87
2023/06/05 04:41:01;;;;;;;4.10;2.40;;;;;;;;;;5115061;28;20059;-87
2023/06/05 04:43:28;;;;;;;5.30;3.97;;;;;;;;;;5117498;28;20079;-87
2023/06/05 04:45:56;;;;;;;14.45;7.85;;;;;;;;;;5116383;28;20092;-87
2023/06/05 04:48:23;;;;;;;16.40;9.40;;;;;;;;;;5116347;28;20055;-87
2023/06/05 04:50:53;;;;;;;72.25;37.53;;;;;;;;;;5117266;28;20487;-86
2023/06/05 04:53:20;;;;;;;32.53;18.77;;;;;;;;;;5133202;27;20124;-86
2023/06/05 04:55:48;;;;;;;13.30;10.52;;;;;;;;;;5117197;28;20074;-86
2023/06/05 04:58:16;;;;;;;19.60;13.88;;;;;;;;;;5117225;27;20483;-86
2023/06/05 05:00:48;;;;;;;9.10;6.00;;;;;;;;;;5116011;28;20472;-87
2023/06/05 05:03:17;;;;;;;15.20;9.48;;;;;;;;;;5115851;28;20562;-87
2023/06/05 05:05:44;;;;;;;15.73;12.07;;;;;;;;;;5115925;28;20118;-87
2023/06/05 05:08:12;;;;;;;7.97;4.50;;;;;;;;;;5115935;28;20048;-86
2023/06/05 05:10:40;;;;;;;4.57;3.33;;;;;;;;;;5115319;28;20491;-87
2023/06/05 05:13:08;;;;;;;6.50;4.10;;;;;;;;;;5115538;28;20052;-86
2023/06/05 05:15:35;;;;;;;5.97;2.08;;;;;;;;;;5115734;28;20071;-86
2023/06/05 05:18:03;;;;;;;10.77;4.88;;;;;;;;;;5116873;28;20055;-87
2023/06/05 05:20:32;;;;;;;4.30;3.30;;;;;;;;;;5115736;28;20487;-87
2023/06/05 05:23:02;;;;;;;3.70;2.55;;;;;;;;;;5116653;28;20043;-87
2023/06/05 05:25:30;;;;;;;3.70;3.40;;;;;;;;;;5111522;28;20138;-87
2023/06/05 05:27:57;;;;;;;3.78;1.88;;;;;;;;;;5114924;28;20074;-87
2023/06/05 05:30:24;;;;;;;2.85;1.83;;;;;;;;;;5115639;28;20059;-87
2023/06/05 05:32:52;;;;;;;2.88;1.83;;;;;;;;;;5115313;28;20142;-87
2023/06/05 05:35:19;;;;;;;3.90;1.75;;;;;;;;;;5115547;28;20134;-87
2023/06/05 05:37:47;;;;;;;15.88;13.32;;;;;;;;;;5116410;28;20109;-87
2023/06/05 05:40:14;;;;;;;12.43;10.88;;;;;;;;;;5116037;28;20051;-86
2023/06/05 05:42:42;;;;;;;9.90;8.20;;;;;;;;;;5114591;28;20074;-87
2023/06/05 05:45:09;;;;;;;8.82;4.47;;;;;;;;;;5115376;28;20050;-87
2023/06/05 05:47:36;;;;;;;4.47;2.20;;;;;;;;;;5115412;28;20051;-87
2023/06/05 05:50:05;;;;;;;2.40;2.10;;;;;;;;;;5115246;28;20625;-86
2023/06/05 05:52:32;;;;;;;4.20;2.08;;;;;;;;;;5114936;28;20093;-87
2023/06/05 05:55:00;;;;;;;12.48;2.25;;;;;;;;;;5116270;28;20048;-87
2023/06/05 05:57:27;;;;;;;3.95;1.75;;;;;;;;;;5115207;28;20040;-86
2023/06/05 05:59:55;;;;;;;3.88;1.80;;;;;;;;;;5116217;28;20058;-86
2023/06/05 06:02:22;;;;;;;5.15;1.80;;;;;;;;;;5114995;28;20089;-87
2023/06/05 06:04:50;;;;;;;2.13;1.92;;;;;;;;;;5115076;28;20051;-87
2023/06/05 06:07:17;;;;;;;4.72;1.55;;;;;;;;;;5128412;27;20031;-85
2023/06/05 06:09:45;;;;;;;2.92;1.80;;;;;;;;;;5119674;27;20055;-85
2023/06/05 06:12:13;;;;;;;15.10;3.33;;;;;;;;;;5114678;28;20104;-86
2023/06/05 06:14:40;;;;;;;9.52;3.13;;;;;;;;;;5115175;28;20467;-86
2023/06/05 06:17:10;;;;;;;12.05;3.40;;;;;;;;;;5114849;28;20043;-87
2023/06/05 06:19:37;;;;;;;12.77;3.08;;;;;;;;;;5114561;28;20073;-85
2023/06/05 06:22:11;;;;;;;20.77;4.07;;;;;;;;;;5115552;28;20519;-85
2023/06/05 06:24:38;;;;;;;;;;;;;;;;;;5115418;28;20052;-87
2023/06/05 06:27:06;;;;;;;11.13;3.13;;;;;;;;;;5114630;28;20295;-85
2023/06/05 06:29:53;;;;;;;22.15;3.13;;;;;;;;;;5114946;28;20052;-86
2023/06/05 06:32:21;;;;;;;19.60;3.58;;;;;;;;;;5115326;28;20056;-86
2023/06/05 06:34:50;;;;;;;18.75;3.20;;;;;;;;;;5115952;28;20090;-86
2023/06/05 06:37:20;;;;;;;21.58;3.28;;;;;;;;;;5114607;28;20436;-86
2023/06/05 06:39:47;;;;;;;18.88;3.15;;;;;;;;;;5113308;28;20062;-86
2023/06/05 06:42:14;;;;;;;8.35;2.17;;;;;;;;;;5114803;28;20048;-85
2023/06/05 06:44:42;;;;;;;12.35;2.63;;;;;;;;;;5115052;28;20503;-87
2023/06/05 06:47:10;;;;;;;12.00;3.05;;;;;;;;;;5114093;28;20054;-85
2023/06/05 06:49:39;;;;;;;6.93;2.25;;;;;;;;;;5113966;28;20502;-85
2023/06/05 06:52:06;;;;;;;10.95;2.60;;;;;;;;;;5115029;28;20380;-85
2023/06/05 06:54:34;;;;;;;11.25;2.65;;;;;;;;;;5114203;28;20484;-85
2023/06/05 06:57:02;;;;;;;7.10;2.30;;;;;;;;;;5113690;28;20043;-84
2023/06/05 06:59:29;;;;;;;7.05;2.10;;;;;;;;;;5114897;28;20082;-85
2023/06/05 07:02:11;;;;;;;6.88;2.60;;;;;;;;;;5114286;28;20055;-86
2023/06/05 07:04:38;;;;;;;2.50;2.08;;;;;;;;;;5113447;28;20521;-86
2023/06/05 07:07:06;;;;;;;3.63;1.58;;;;;;;;;;5115284;28;20047;-88
2023/06/05 07:09:33;;;;;;;2.03;1.42;;;;;;;;;;5113969;28;20071;-87
2023/06/05 07:12:04;;;;;;;5.07;1.60;;;;;;;;;;5113253;28;20078;-84
2023/06/05 07:14:35;;;;;;;6.30;1.60;;;;;;;;;;5113696;28;20419;-85
2023/06/05 07:17:03;;;;;;;5.75;1.70;;;;;;;;;;5113385;28;20055;-85
2023/06/05 07:19:31;;;;;;;1.90;1.58;;;;;;;;;;5113368;28;20132;-86
2023/06/05 07:21:59;;;;;;;3.17;1.83;;;;;;;;;;5120634;28;20031;-86
2023/06/05 07:24:27;;;;;;;3.15;1.50;;;;;;;;;;5123754;27;20506;-86
2023/06/05 07:26:55;;;;;;;3.03;1.35;;;;;;;;;;5114399;28;20048;-86
2023/06/05 07:29:23;;;;;;;2.28;1.40;;;;;;;;;;5113534;28;20450;-86
2023/06/05 07:31:51;;;;;;;3.60;1.50;;;;;;;;;;5113075;28;20090;-86
2023/06/05 07:34:19;;;;;;;4.72;1.60;;;;;;;;;;5113572;28;20059;-88
2023/06/05 07:36:48;;;;;;;4.93;1.63;;;;;;;;;;5113400;28;20044;-86
2023/06/05 07:39:15;;;;;;;3.35;1.42;;;;;;;;;;5113432;28;20087;-87
2023/06/05 07:41:43;;;;;;;3.88;1.95;;;;;;;;;;5114173;28;20101;-86
2023/06/05 07:44:11;;;;;;;3.80;1.40;;;;;;;;;;5113316;28;20105;-85
2023/06/05 07:46:42;;;;;;;4.03;1.40;;;;;;;;;;5114650;28;20051;-86
2023/06/05 07:49:09;;;;;;;6.90;1.70;;;;;;;;;;5114331;28;20043;-87
2023/06/05 07:51:37;;;;;;;4.63;1.95;;;;;;;;;;5113153;28;20044;-86
2023/06/05 07:54:08;;;;;;;2.20;1.23;;;;;;;;;;5112849;28;20085;-85
2023/06/05 07:56:36;;;;;;;3.30;1.67;;;;;;;;;;5113370;28;20051;-87
2023/06/05 07:59:04;;;;;;;3.67;1.63;;;;;;;;;;5112652;28;20044;-88
2023/06/05 08:01:36;;;;;;;4.20;1.48;;;;;;;;;;5113130;28;20073;-87
2023/06/05 08:04:04;;;;;;;5.45;1.50;;;;;;;;;;5113251;28;20147;-88
2023/06/05 08:06:32;;;;;;;4.78;1.60;;;;;;;;;;5113470;28;20043;-90
2023/06/05 08:09:00;;;;;;;3.17;1.55;;;;;;;;;;5113166;28;20054;-87
2023/06/05 08:11:28;;;;;;;3.78;1.50;;;;;;;;;;5113299;28;20078;-88
2023/06/05 08:13:55;;;;;;;1.60;1.50;;;;;;;;;;5112948;28;20101;-91
2023/06/05 08:16:23;;;;;;;2.00;1.50;;;;;;;;;;5113329;28;20458;-89
2023/06/05 08:18:50;;;;;;;1.55;1.33;;;;;;;;;;5112977;28;20043;-84
2023/06/05 08:21:17;;;;;;;1.40;1.30;;;;;;;;;;5112957;28;20043;-86
2023/06/05 08:23:45;;;;;;;2.85;1.63;;;;;;;;;;5114029;28;20048;-88
2023/06/05 08:26:12;;;;;;;2.78;1.58;;;;;;;;;;5113180;28;20138;-87
2023/06/05 08:28:40;;;;;;;1.55;1.45;;;;;;;;;;5113218;28;20052;-90
2023/06/05 08:31:07;;;;;;;2.67;1.40;;;;;;;;;;5112802;28;20079;-89
2023/06/05 08:33:35;;;;;;;3.38;1.52;;;;;;;;;;5111564;28;20051;-90
2023/06/05 08:36:03;;;;;;;1.55;1.45;;;;;;;;;;5112374;28;20457;-89
2023/06/05 08:38:30;;;;;;;3.50;1.50;;;;;;;;;;5125804;28;20067;-87
2023/06/05 08:41:02;;;;;;;11.57;2.00;;;;;;;;;;5116149;28;20105;-89
2023/06/05 08:43:30;;;;;;;2.28;1.30;;;;;;;;;;5112951;28;20040;-93
2023/06/05 08:45:57;;;;;;;2.60;1.48;;;;;;;;;;5113178;28;20458;-90
2023/06/05 08:48:25;;;;;;;3.30;1.50;;;;;;;;;;5113343;28;20538;-92
2023/06/05 08:50:54;;;;;;;4.75;1.58;;;;;;;;;;5112757;28;20043;-91
2023/06/05 08:53:28;;;;;;;3.90;1.70;;;;;;;;;;5114401;28;20047;-94
2023/06/05 08:56:03;;;;;;;2.45;1.45;;;;;;;;;;5113199;28;20048;-90
2023/06/05 08:58:31;;;;;;;2.22;1.60;;;;;;;;;;5112842;28;20074;-91
2023/06/05 09:01:01;;;;;;;3.75;1.40;;;;;;;;;;5112706;28;20055;-90
2023/06/05 09:03:28;;;;;;;8.68;2.17;;;;;;;;;;5115799;28;20134;-89
2023/06/05 09:05:55;;;;;;;7.07;1.73;;;;;;;;;;5116531;28;20040;-87
2023/06/05 09:08:34;;;;;;;2.17;1.63;;;;;;;;;;5116592;28;20039;-88
2023/06/05 09:11:20;;;;;;;1.55;1.42;;;;;;;;;;5116414;28;20568;-89
2023/06/05 09:13:48;;;;;;;5.80;1.63;;;;;;;;;;5116796;28;20051;-91
2023/06/05 09:16:15;;;;;;;3.50;1.80;;;;;;;;;;5116753;28;20047;-91
2023/06/05 09:18:55;;;;;;;3.50;1.63;;;;;;;;;;5116777;28;20463;-88
2023/06/05 09:21:29;;;;;;;2.75;1.83;;;;;;;;;;5116103;28;20044;-89
2023/06/05 09:24:18;;;;;;;2.78;1.40;;;;;;;;;;5116523;28;20048;-90
2023/06/05 09:26:59;;;;;;;5.32;1.60;;;;;;;;;;5119294;28;20458;-90
2023/06/05 09:29:26;;;;;;;2.33;1.33;;;;;;;;;;5126848;28;20051;-89
2023/06/05 09:31:55;;;;;;;3.42;1.73;;;;;;;;;;5116282;28;20051;-89
2023/06/05 09:34:32;;;;;;;3.85;1.83;;;;;;;;;;5115869;28;20077;-89
2023/06/05 09:37:01;;;;;;;3.08;1.52;;;;;;;;;;5116291;28;20044;-88
2023/06/05 09:39:29;;;;;;;7.07;2.10;;;;;;;;;;5116234;28;20047;-89
2023/06/05 09:41:57;;;;;;;2.10;1.60;;;;;;;;;;5115934;28;20051;-88
2023/06/05 09:44:25;;;;;;;3.47;1.80;;;;;;;;;;5115602;28;20144;-88
2023/06/05 09:46:55;;;;;;;2.60;1.75;;;;;;;;;;5116119;28;20047;-90
2023/06/05 09:49:25;;;;;;;2.63;1.70;;;;;;;;;;5115870;28;20044;-87
2023/06/05 09:51:52;;;;;;;4.35;1.75;;;;;;;;;;5115515;28;20477;-89
2023/06/05 09:54:22;;;;;;;7.10;1.75;;;;;;;;;;5127234;28;20055;-89
2023/06/05 09:56:50;;;;;;;2.15;1.38;;;;;;;;;;5119162;28;20126;-90
2023/06/05 09:59:21;;;;;;;9.30;1.92;;;;;;;;;;5115697;28;20097;-89
2023/06/05 10:01:50;;;;;;;4.30;1.83;;;;;;;;;;5115183;28;20048;-87
2023/06/05 10:04:20;;;;;;;7.53;1.75;;;;;;;;;;5116012;28;20079;-90
2023/06/05 10:06:48;;;;;;;5.03;1.75;;;;;;;;;;5115195;28;20093;-87
2023/06/05 10:09:16;;;;;;;8.05;2.25;;;;;;;;;;5115325;28;20083;-88
2023/06/05 10:11:43;;;;;;;13.98;2.47;;;;;;;;;;5114677;28;20066;-88
2023/06/05 10:14:10;;;;;;;8.73;2.00;;;;;;;;;;5114528;28;20056;-89
2023/06/05 10:16:39;;;;;;;2.80;1.63;;;;;;;;;;5114701;28;20043;-86
2023/06/05 10:19:06;;;;;;;6.90;1.77;;;;;;;;;;5114914;28;20055;-90
2023/06/05 10:21:35;;;;;;;6.05;1.63;;;;;;;;;;5114858;28;20075;-86
2023/06/05 10:24:04;;;;;;;2.65;1.92;;;;;;;;;;5114443;28;20044;-87
2023/06/05 10:26:44;;;;;;;6.57;2.00;;;;;;;;;;5116033;28;20044;-88
2023/06/05 10:29:18;;;;;;;16.65;2.30;;;;;;;;;;5115168;28;20048;-91
2023/06/05 10:31:45;;;;;;;;;;;;;;;;;;5114558;28;20109;-86
2023/06/05 10:34:18;;;;;;;4.45;1.67;;;;;;;;;;5114909;28;19920;-86
2023/06/05 10:36:58;;;;;;;2.42;1.70;;;;;;;;;;5114571;28;20503;-86
2023/06/05 10:39:26;;;;;;;3.00;1.70;;;;;;;;;;5114906;28;20522;-87
2023/06/05 10:41:53;;;;;;;8.68;2.50;;;;;;;;;;5114298;28;20051;-84
2023/06/05 10:44:38;;;;;;;7.53;2.25;;;;;;;;;;5114351;28;20103;-85
2023/06/05 10:47:25;;;;;;;1.73;1.55;;;;;;;;;;5114056;28;20457;-87
2023/06/05 10:50:11;;;;;;;7.63;2.00;;;;;;;;;;5115152;28;20047;-88
2023/06/05 10:52:39;;;;;;;3.53;1.88;;;;;;;;;;5114148;28;20059;-86
2023/06/05 10:55:07;;;;;;;5.18;2.08;;;;;;;;;;5114476;28;20051;-88
2023/06/05 10:58:00;;;;;;;7.63;2.40;;;;;;;;;;5113971;28;20092;-88
2023/06/05 11:00:31;;;;;;;8.52;2.22;;;;;;;;;;5113166;28;20044;-85
2023/06/05 11:03:01;;;;;;;1.88;1.70;;;;;;;;;;5115082;28;20055;-88
2023/06/05 11:05:31;;;;;;;5.38;2.33;;;;;;;;;;5114436;28;20086;-85
2023/06/05 11:08:13;;;;;;;5.68;1.83;;;;;;;;;;5116309;28;20050;-87
2023/06/05 11:11:00;;;;;;;4.38;1.90;;;;;;;;;;5125767;28;20048;-89
2023/06/05 11:13:48;;;;;;;2.25;1.75;;;;;;;;;;5116560;28;20047;-85
2023/06/05 11:16:31;;;;;;;4.60;1.85;;;;;;;;;;5116694;28;20079;-86
2023/06/05 11:19:17;;;;;;;7.43;1.90;;;;;;;;;;5115400;28;20052;-87
2023/06/05 11:22:03;;;;;;;3.55;1.88;;;;;;;;;;5113939;28;20048;-87
2023/06/05 11:24:32;;;;;;;5.38;2.00;;;;;;;;;;5114584;28;20055;-85
2023/06/05 11:26:59;;;;;;;21.45;3.13;;;;;;;;;;5113788;28;20469;-83
2023/06/05 11:29:27;;;;;;;3.88;1.70;;;;;;;;;;5113841;28;20055;-85
2023/06/05 11:31:54;;;;;;;9.50;2.38;;;;;;;;;;5113647;28;20388;-84
2023/06/05 11:34:21;;;;;;;5.13;2.10;;;;;;;;;;5113589;28;20514;-85
2023/06/05 11:36:50;;;;;;;4.38;1.88;;;;;;;;;;5113355;28;20048;-89
2023/06/05 11:39:19;;;;;;;5.03;2.03;;;;;;;;;;5113665;28;20112;-91
2023/06/05 11:41:47;;;;;;;5.10;1.88;;;;;;;;;;5113766;28;20071;-87
2023/06/05 11:44:15;;;;;;;6.53;2.20;;;;;;;;;;5116053;28;20048;-87
2023/06/05 11:46:43;;;;;;;1.92;1.80;;;;;;;;;;5115202;28;20055;-86
2023/06/05 11:49:24;;;;;;;4.32;2.13;;;;;;;;;;5113365;28;20040;-85
2023/06/05 11:51:51;;;;;;;5.63;2.33;;;;;;;;;;5113062;28;20575;-85
2023/06/05 11:54:26;;;;;;;5.75;2.20;;;;;;;;;;5114147;28;20075;-89
2023/06/05 11:56:57;;;;;;;11.75;2.60;;;;;;;;;;5113077;28;20051;-86
2023/06/05 11:59:24;;;;;;;4.03;2.25;;;;;;;;;;5113469;28;20511;-87
2023/06/05 12:01:54;;;;;;;2.95;2.05;;;;;;;;;;5113234;28;20556;-88
2023/06/05 12:04:22;;;;;;;3.60;1.95;;;;;;;;;;5113083;28;20052;-87
2023/06/05 12:06:51;;;;;;;4.97;2.45;;;;;;;;;;5113648;28;20510;-91
2023/06/05 12:09:19;;;;;;;9.43;2.45;;;;;;;;;;5113791;28;20130;-84
2023/06/05 12:11:46;;;;;;;2.60;2.40;;;;;;;;;;5114113;28;20051;-90
2023/06/05 12:14:28;;;;;;;5.15;2.30;;;;;;;;;;5112972;28;20059;-84
2023/06/05 12:16:55;;;;;;;5.57;2.33;;;;;;;;;;5113089;28;20044;-85
2023/06/05 12:19:24;;;;;;;5.25;2.22;;;;;;;;;;5112985;28;20052;-86
2023/06/05 12:21:52;;;;;;;10.82;2.25;;;;;;;;;;5112969;28;20078;-84
2023/06/05 12:24:29;;;;;;;5.90;2.42;;;;;;;;;;5113966;28;20089;-90
2023/06/05 12:26:58;;;;;;;2.72;2.03;;;;;;;;;;5124611;28;20047;-86
2023/06/05 12:29:28;;;;;;;4.90;2.47;;;;;;;;;;5114277;28;20396;-86
2023/06/05 12:31:57;;;;;;;10.73;2.50;;;;;;;;;;5111869;28;20066;-84
2023/06/05 12:34:41;;;;;;;3.08;2.60;;;;;;;;;;5113812;28;20500;-88
2023/06/05 12:37:12;;;;;;;6.63;2.42;;;;;;;;;;5113978;28;20051;-88
2023/06/05 12:39:40;;;;;;;7.60;2.60;;;;;;;;;;5117276;28;20406;-86
2023/06/05 12:42:07;;;;;;;5.45;2.45;;;;;;;;;;5116869;28;20483;-87
2023/06/05 12:44:35;;;;;;;5.53;2.25;;;;;;;;;;5116640;28;20051;-88
2023/06/05 12:47:02;;;;;;;4.18;2.60;;;;;;;;;;5115498;28;20480;-88
2023/06/05 12:49:30;;;;;;;8.60;2.55;;;;;;;;;;5116570;28;20059;-83
2023/06/05 12:51:57;;;;;;;8.00;2.55;;;;;;;;;;5116317;28;20051;-87
2023/06/05 12:54:27;;;;;;;7.70;2.78;;;;;;;;;;5116673;28;20048;-87
2023/06/05 12:56:55;;;;;;;3.90;2.30;;;;;;;;;;5116647;28;20396;-89
2023/06/05 12:59:22;;;;;;;4.78;2.67;;;;;;;;;;5117453;28;20054;-87
2023/06/05 13:01:50;;;;;;;5.65;2.63;;;;;;;;;;5116209;28;20044;-87
2023/06/05 13:04:17;;;;;;;4.30;2.67;;;;;;;;;;5116143;28;20051;-85
2023/06/05 13:06:46;;;;;;;5.43;2.50;;;;;;;;;;5116966;27;20044;-87
2023/06/05 13:09:14;;;;;;;4.72;2.45;;;;;;;;;;5116718;28;20047;-85
2023/06/05 13:11:41;;;;;;;3.60;2.65;;;;;;;;;;5116086;28;20043;-85
2023/06/05 13:14:08;;;;;;;3.47;2.63;;;;;;;;;;5117577;28;20048;-87
2023/06/05 13:16:35;;;;;;;7.35;2.90;;;;;;;;;;5115993;28;20108;-84
2023/06/05 13:19:03;;;;;;;3.97;2.75;;;;;;;;;;5115727;28;20043;-86
2023/06/05 13:21:30;;;;;;;2.83;2.50;;;;;;;;;;5116162;28;20047;-90
2023/06/05 13:23:57;;;;;;;5.97;2.50;;;;;;;;;;5116101;28;20462;-89
2023/06/05 13:26:26;;;;;;;6.63;2.45;;;;;;;;;;5115767;28;20044;-88
2023/06/05 13:28:53;;;;;;;5.20;2.70;;;;;;;;;;5115690;28;20044;-88
2023/06/05 13:31:20;;;;;;;6.78;2.55;;;;;;;;;;5115402;28;20051;-85
2023/06/05 13:33:47;;;;;;;9.68;3.00;;;;;;;;;;5115879;28;20055;-87
2023/06/05 13:36:15;;;;;;;3.33;2.50;;;;;;;;;;5116627;28;20097;-90
2023/06/05 13:38:42;;;;;;;15.70;3.22;;;;;;;;;;5115958;28;20071;-89
2023/06/05 13:41:09;;;;;;;3.88;2.22;;;;;;;;;;5115896;28;20051;-88
2023/06/05 13:43:39;;;;;;;10.63;3.03;;;;;;;;;;5119256;28;20047;-86
2023/06/05 13:46:06;;;;;;;3.72;2.33;;;;;;;;;;5116725;28;20048;-90
2023/06/05 13:48:34;;;;;;;2.85;2.65;;;;;;;;;;5115137;28;20047;-90
2023/06/05 13:51:02;;;;;;;4.93;2.70;;;;;;;;;;5115160;28;20412;-87
2023/06/05 13:53:34;;;;;;;2.67;2.35;;;;;;;;;;5115400;28;20043;-89
2023/06/05 13:56:05;;;;;;;9.77;3.08;;;;;;;;;;5115171;28;20089;-87
2023/06/05 13:58:32;;;;;;;3.88;2.55;;;;;;;;;;5116907;28;20101;-92
2023/06/05 14:01:00;;;;;;;3.15;2.53;;;;;;;;;;5115952;28;20116;-87
2023/06/05 14:03:27;;;;;;;2.85;2.50;;;;;;;;;;5115577;28;20051;-88
2023/06/05 14:05:55;;;;;;;4.03;2.97;;;;;;;;;;5114502;28;20142;-88
2023/06/05 14:08:22;;;;;;;9.38;2.72;;;;;;;;;;5115813;28;20047;-84
2023/06/05 14:10:52;;;;;;;14.57;2.80;;;;;;;;;;5114527;28;20069;-85
2023/06/05 14:13:19;;;;;;;4.70;2.72;;;;;;;;;;5114585;28;20495;-86
2023/06/05 14:15:46;;;;;;;6.55;3.20;;;;;;;;;;5114780;28;20055;-87
2023/06/05 14:18:14;;;;;;;4.15;2.72;;;;;;;;;;5114630;28;20139;-85
2023/06/05 14:20:41;;;;;;;5.70;2.60;;;;;;;;;;5114440;28;20078;-87
2023/06/05 14:23:10;;;;;;;4.40;2.90;;;;;;;;;;5115091;28;20484;-84
2023/06/05 14:25:37;;;;;;;4.70;2.70;;;;;;;;;;5114346;28;20051;-83
2023/06/05 14:28:06;;;;;;;5.47;2.70;;;;;;;;;;5114459;28;20051;-86
2023/06/05 14:30:33;;;;;;;6.75;3.45;;;;;;;;;;5114177;28;20047;-85
2023/06/05 14:33:00;;;;;;;5.75;3.33;;;;;;;;;;5114089;28;20048;-84
2023/06/05 14:35:29;;;;;;;5.55;3.17;;;;;;;;;;5115287;28;20059;-86
2023/06/05 14:37:56;;;;;;;10.20;3.58;;;;;;;;;;5114001;28;20058;-86
2023/06/05 14:40:23;;;;;;;4.43;3.05;;;;;;;;;;5115331;28;20055;-86
2023/06/05 14:42:51;;;;;;;5.85;2.65;;;;;;;;;;5114258;28;20537;-87
2023/06/05 14:45:18;;;;;;;3.67;2.75;;;;;;;;;;5114198;28;20078;-85
2023/06/05 14:47:47;;;;;;;5.85;2.78;;;;;;;;;;5113760;28;20048;-84
2023/06/05 14:50:14;;;;;;;10.93;2.97;;;;;;;;;;5114004;28;20047;-86
2023/06/05 14:52:41;;;;;;;7.88;2.65;;;;;;;;;;5114783;28;20092;-89
2023/06/05 14:55:09;;;;;;;3.20;2.67;;;;;;;;;;5113812;28;20090;-85